sensor_id;sensor_type;location;lat;lon;timestamp;temperature;humidity
12130;DHT22;6128;59.340;18.040;2023-12-28T00:00:18;-3.50;99.90
12130;DHT22;6128;59.340;18.040;2023-12-28T00:02:45;-3.50;99.90
12130;DHT22;6128;59.340;18.040;2023-12-28T00:05:12;-3.50;99.90
12130;DHT22;6128;59.340;18.040;2023-12-28T00:07:40;-3.50;99.90
12130;DHT22;6128;59.340;18.040;2023-12-28T00:10:08;-3.50;99.90
12130;DHT22;6128;59.340;18.040;2023-12-28T00:12:35;-3.50;99.90
12130;DHT22;6128;59.340;18.040;2023-12-28T00:15:02;-3.50;99.90
12130;DHT22;6128;59.340;18.040;2023-12-28T00:17:30;-3.50;99.90
12130;DHT22;6128;59.340;18.040;2023-12-28T00:19:57;-3.50;99.90
12130;DHT22;6128;59.340;18.040;2023-12-28T00:22:24;-3.50;99.90
12130;DHT22;6128;59.340;18.040;2023-12-28T00:24:52;-3.50;99.90
12130;DHT22;6128;59.340;18.040;2023-12-28T00:27:19;-3.40;99.90
12130;DHT22;6128;59.340;18.040;2023-12-28T00:29:46;-3.40;99.90
12130;DHT22;6128;59.340;18.040;2023-12-28T00:32:13;-3.40;99.90
12130;DHT22;6128;59.340;18.040;2023-12-28T00:34:40;-3.40;99.90
12130;DHT22;6128;59.340;18.040;2023-12-28T00:37:07;-3.40;99.90
12130;DHT22;6128;59.340;18.040;2023-12-28T00:39:34;-3.30;99.90
12130;DHT22;6128;59.340;18.040;2023-12-28T00:42:04;-3.30;99.90
12130;DHT22;6128;59.340;18.040;2023-12-28T00:44:33;-3.30;99.90
12130;DHT22;6128;59.340;18.040;2023-12-28T00:47:00;-3.20;99.90
12130;DHT22;6128;59.340;18.040;2023-12-28T00:49:27;-3.30;99.90
12130;DHT22;6128;59.340;18.040;2023-12-28T00:51:54;-3.30;99.90
12130;DHT22;6128;59.340;18.040;2023-12-28T00:54:21;-3.30;99.90
12130;DHT22;6128;59.340;18.040;2023-12-28T00:56:48;-3.40;99.90
12130;DHT22;6128;59.340;18.040;2023-12-28T00:59:17;-3.40;99.90
12130;DHT22;6128;59.340;18.040;2023-12-28T01:01:44;-3.40;99.90
12130;DHT22;6128;59.340;18.040;2023-12-28T01:04:11;-3.30;99.90
12130;DHT22;6128;59.340;18.040;2023-12-28T01:06:38;-3.30;99.90
12130;DHT22;6128;59.340;18.040;2023-12-28T01:09:06;-3.30;99.90
12130;DHT22;6128;59.340;18.040;2023-12-28T01:11:33;-3.40;99.90
12130;DHT22;6128;59.340;18.040;2023-12-28T01:14:00;-3.30;99.90
12130;DHT22;6128;59.340;18.040;2023-12-28T01:16:29;-3.30;99.90
12130;DHT22;6128;59.340;18.040;2023-12-28T01:18:56;-3.30;99.90
12130;DHT22;6128;59.340;18.040;2023-12-28T01:21:22;-3.30;99.90
12130;DHT22;6128;59.340;18.040;2023-12-28T01:23:50;-3.30;99.90
12130;DHT22;6128;59.340;18.040;2023-12-28T01:26:17;-3.30;99.90
12130;DHT22;6128;59.340;18.040;2023-12-28T01:28:44;-3.30;99.90
12130;DHT22;6128;59.340;18.040;2023-12-28T01:31:11;-3.40;99.90
12130;DHT22;6128;59.340;18.040;2023-12-28T01:33:39;-3.40;99.90
12130;DHT22;6128;59.340;18.040;2023-12-28T01:36:16;-3.40;99.90
12130;DHT22;6128;59.340;18.040;2023-12-28T01:38:43;-3.40;99.90
12130;DHT22;6128;59.340;18.040;2023-12-28T01:41:10;-3.40;99.90
12130;DHT22;6128;59.340;18.040;2023-12-28T01:43:38;-3.40;99.90
12130;DHT22;6128;59.340;18.040;2023-12-28T01:46:05;-3.50;99.90
12130;DHT22;6128;59.340;18.040;2023-12-28T01:48:33;-3.50;99.90
12130;DHT22;6128;59.340;18.040;2023-12-28T01:51:02;-3.50;99.90
12130;DHT22;6128;59.340;18.040;2023-12-28T01:53:30;-3.50;99.90
12130;DHT22;6128;59.340;18.040;2023-12-28T01:55:57;-3.50;99.90
12130;DHT22;6128;59.340;18.040;2023-12-28T01:58:27;-3.50;99.90
12130;DHT22;6128;59.340;18.040;2023-12-28T02:00:56;-3.50;99.90
12130;DHT22;6128;59.340;18.040;2023-12-28T02:03:23;-3.60;99.90
12130;DHT22;6128;59.340;18.040;2023-12-28T02:05:51;-3.50;99.90
12130;DHT22;6128;59.340;18.040;2023-12-28T02:08:20;-3.60;99.90
12130;DHT22;6128;59.340;18.040;2023-12-28T02:10:47;-3.60;99.90
12130;DHT22;6128;59.340;18.040;2023-12-28T02:13:14;-3.60;99.90
12130;DHT22;6128;59.340;18.040;2023-12-28T02:15:42;-3.60;99.90
12130;DHT22;6128;59.340;18.040;2023-12-28T02:18:12;-3.60;99.90
12130;DHT22;6128;59.340;18.040;2023-12-28T02:20:39;-3.60;99.90
12130;DHT22;6128;59.340;18.040;2023-12-28T02:23:08;-3.60;99.90
12130;DHT22;6128;59.340;18.040;2023-12-28T02:25:40;-3.60;99.90
12130;DHT22;6128;59.340;18.040;2023-12-28T02:28:07;-3.60;99.90
12130;DHT22;6128;59.340;18.040;2023-12-28T02:30:35;-3.60;99.90
12130;DHT22;6128;59.340;18.040;2023-12-28T02:33:10;-3.60;99.90
12130;DHT22;6128;59.340;18.040;2023-12-28T02:35:42;-3.70;99.90
12130;DHT22;6128;59.340;18.040;2023-12-28T02:38:11;-3.70;99.90
12130;DHT22;6128;59.340;18.040;2023-12-28T02:40:41;-3.70;99.90
12130;DHT22;6128;59.340;18.040;2023-12-28T02:43:10;-3.60;99.90
12130;DHT22;6128;59.340;18.040;2023-12-28T02:45:38;-3.60;99.90
12130;DHT22;6128;59.340;18.040;2023-12-28T02:48:06;-3.60;99.90
12130;DHT22;6128;59.340;18.040;2023-12-28T02:50:33;-3.60;99.90
12130;DHT22;6128;59.340;18.040;2023-12-28T02:53:00;-3.60;99.90
12130;DHT22;6128;59.340;18.040;2023-12-28T02:55:28;-3.60;99.90
12130;DHT22;6128;59.340;18.040;2023-12-28T02:57:57;-3.60;99.90
12130;DHT22;6128;59.340;18.040;2023-12-28T03:00:25;-3.50;99.90
12130;DHT22;6128;59.340;18.040;2023-12-28T03:02:52;-3.50;99.90
12130;DHT22;6128;59.340;18.040;2023-12-28T03:05:20;-3.50;99.90
12130;DHT22;6128;59.340;18.040;2023-12-28T03:07:47;-3.40;99.90
12130;DHT22;6128;59.340;18.040;2023-12-28T03:10:14;-3.40;99.90
12130;DHT22;6128;59.340;18.040;2023-12-28T03:12:41;-3.40;99.90
12130;DHT22;6128;59.340;18.040;2023-12-28T03:15:09;-3.30;99.90
12130;DHT22;6128;59.340;18.040;2023-12-28T03:17:36;-3.30;99.90
12130;DHT22;6128;59.340;18.040;2023-12-28T03:20:04;-3.30;99.90
12130;DHT22;6128;59.340;18.040;2023-12-28T03:22:32;-3.20;99.90
12130;DHT22;6128;59.340;18.040;2023-12-28T03:24:59;-3.20;99.90
12130;DHT22;6128;59.340;18.040;2023-12-28T03:27:26;-3.20;99.90
12130;DHT22;6128;59.340;18.040;2023-12-28T03:29:52;-3.20;99.90
12130;DHT22;6128;59.340;18.040;2023-12-28T03:32:21;-3.20;99.90
12130;DHT22;6128;59.340;18.040;2023-12-28T03:34:48;-3.10;99.90
12130;DHT22;6128;59.340;18.040;2023-12-28T03:37:15;-3.10;99.90
12130;DHT22;6128;59.340;18.040;2023-12-28T03:39:42;-3.10;99.90
12130;DHT22;6128;59.340;18.040;2023-12-28T03:42:09;-3.10;99.90
12130;DHT22;6128;59.340;18.040;2023-12-28T03:44:36;-3.20;99.90
12130;DHT22;6128;59.340;18.040;2023-12-28T03:47:04;-3.20;99.90
12130;DHT22;6128;59.340;18.040;2023-12-28T03:49:32;-3.20;99.90
12130;DHT22;6128;59.340;18.040;2023-12-28T03:51:59;-3.10;99.90
12130;DHT22;6128;59.340;18.040;2023-12-28T03:54:26;-3.10;99.90
12130;DHT22;6128;59.340;18.040;2023-12-28T03:56:53;-3.20;99.90
12130;DHT22;6128;59.340;18.040;2023-12-28T03:59:21;-3.20;99.90
12130;DHT22;6128;59.340;18.040;2023-12-28T04:01:48;-3.20;99.90
12130;DHT22;6128;59.340;18.040;2023-12-28T04:04:15;-3.10;99.90
12130;DHT22;6128;59.340;18.040;2023-12-28T04:06:43;-3.10;99.90
12130;DHT22;6128;59.340;18.040;2023-12-28T04:09:11;-3.10;99.90
12130;DHT22;6128;59.340;18.040;2023-12-28T04:11:38;-3.20;99.90
12130;DHT22;6128;59.340;18.040;2023-12-28T04:14:05;-3.30;99.90
12130;DHT22;6128;59.340;18.040;2023-12-28T04:16:32;-3.30;99.90
12130;DHT22;6128;59.340;18.040;2023-12-28T04:18:59;-3.30;99.90
12130;DHT22;6128;59.340;18.040;2023-12-28T04:21:26;-3.30;99.90
12130;DHT22;6128;59.340;18.040;2023-12-28T04:23:55;-3.30;99.90
12130;DHT22;6128;59.340;18.040;2023-12-28T04:26:22;-3.30;99.90
12130;DHT22;6128;59.340;18.040;2023-12-28T04:28:49;-3.40;99.90
12130;DHT22;6128;59.340;18.040;2023-12-28T04:31:16;-3.40;99.90
12130;DHT22;6128;59.340;18.040;2023-12-28T04:33:43;-3.40;99.90
12130;DHT22;6128;59.340;18.040;2023-12-28T04:36:10;-3.40;99.90
12130;DHT22;6128;59.340;18.040;2023-12-28T04:38:37;-3.40;99.90
12130;DHT22;6128;59.340;18.040;2023-12-28T04:41:09;-3.30;99.90
12130;DHT22;6128;59.340;18.040;2023-12-28T04:43:38;-3.30;99.90
12130;DHT22;6128;59.340;18.040;2023-12-28T04:46:05;-3.30;99.90
12130;DHT22;6128;59.340;18.040;2023-12-28T04:48:32;-3.20;99.90
12130;DHT22;6128;59.340;18.040;2023-12-28T04:51:02;-3.20;99.90
12130;DHT22;6128;59.340;18.040;2023-12-28T04:53:29;-3.10;99.90
12130;DHT22;6128;59.340;18.040;2023-12-28T04:55:56;-3.10;99.90
12130;DHT22;6128;59.340;18.040;2023-12-28T04:58:24;-3.10;99.90
12130;DHT22;6128;59.340;18.040;2023-12-28T05:00:51;-3.10;99.90
12130;DHT22;6128;59.340;18.040;2023-12-28T05:03:18;-3.00;99.90
12130;DHT22;6128;59.340;18.040;2023-12-28T05:05:46;-3.10;99.90
12130;DHT22;6128;59.340;18.040;2023-12-28T05:08:13;-3.00;99.90
12130;DHT22;6128;59.340;18.040;2023-12-28T05:10:40;-2.90;99.90
12130;DHT22;6128;59.340;18.040;2023-12-28T05:13:07;-2.90;99.90
12130;DHT22;6128;59.340;18.040;2023-12-28T05:15:35;-2.90;99.90
12130;DHT22;6128;59.340;18.040;2023-12-28T05:18:02;-2.90;99.90
12130;DHT22;6128;59.340;18.040;2023-12-28T05:20:29;-2.80;99.90
12130;DHT22;6128;59.340;18.040;2023-12-28T05:22:56;-2.80;99.90
12130;DHT22;6128;59.340;18.040;2023-12-28T05:25:24;-2.70;99.90
12130;DHT22;6128;59.340;18.040;2023-12-28T05:27:51;-2.70;99.90
12130;DHT22;6128;59.340;18.040;2023-12-28T05:30:18;-2.70;99.90
12130;DHT22;6128;59.340;18.040;2023-12-28T05:32:47;-2.70;99.90
12130;DHT22;6128;59.340;18.040;2023-12-28T05:35:14;-2.70;99.90
12130;DHT22;6128;59.340;18.040;2023-12-28T05:37:41;-2.70;99.90
12130;DHT22;6128;59.340;18.040;2023-12-28T05:40:09;-2.70;99.90
12130;DHT22;6128;59.340;18.040;2023-12-28T05:42:36;-2.70;99.90
12130;DHT22;6128;59.340;18.040;2023-12-28T05:45:03;-2.60;99.90
12130;DHT22;6128;59.340;18.040;2023-12-28T05:47:31;-2.60;99.90
12130;DHT22;6128;59.340;18.040;2023-12-28T05:50:00;-2.60;99.90
12130;DHT22;6128;59.340;18.040;2023-12-28T05:52:28;-2.60;99.90
12130;DHT22;6128;59.340;18.040;2023-12-28T05:54:55;-2.50;99.90
12130;DHT22;6128;59.340;18.040;2023-12-28T05:57:22;-2.50;99.90
12130;DHT22;6128;59.340;18.040;2023-12-28T05:59:52;-2.40;99.90
12130;DHT22;6128;59.340;18.040;2023-12-28T06:02:19;-2.40;99.90
12130;DHT22;6128;59.340;18.040;2023-12-28T06:04:46;-2.40;99.90
12130;DHT22;6128;59.340;18.040;2023-12-28T06:07:14;-2.30;99.90
12130;DHT22;6128;59.340;18.040;2023-12-28T06:09:42;-2.30;99.90
12130;DHT22;6128;59.340;18.040;2023-12-28T06:12:10;-2.30;99.90
12130;DHT22;6128;59.340;18.040;2023-12-28T06:14:37;-2.20;99.90
12130;DHT22;6128;59.340;18.040;2023-12-28T06:17:04;-2.20;99.90
12130;DHT22;6128;59.340;18.040;2023-12-28T06:19:31;-2.10;99.90
12130;DHT22;6128;59.340;18.040;2023-12-28T06:21:58;-2.10;99.90
12130;DHT22;6128;59.340;18.040;2023-12-28T06:24:27;-2.00;99.90
12130;DHT22;6128;59.340;18.040;2023-12-28T06:26:54;-1.90;99.90
12130;DHT22;6128;59.340;18.040;2023-12-28T06:29:22;-1.90;99.90
12130;DHT22;6128;59.340;18.040;2023-12-28T06:31:49;-1.90;99.90
12130;DHT22;6128;59.340;18.040;2023-12-28T06:34:16;-1.80;99.90
12130;DHT22;6128;59.340;18.040;2023-12-28T06:36:43;-1.70;99.90
12130;DHT22;6128;59.340;18.040;2023-12-28T06:39:10;-1.70;99.90
12130;DHT22;6128;59.340;18.040;2023-12-28T06:41:38;-1.60;99.90
12130;DHT22;6128;59.340;18.040;2023-12-28T06:44:07;-1.60;99.90
12130;DHT22;6128;59.340;18.040;2023-12-28T06:46:34;-1.50;99.90
12130;DHT22;6128;59.340;18.040;2023-12-28T06:49:01;-1.40;99.90
12130;DHT22;6128;59.340;18.040;2023-12-28T06:51:28;-1.40;99.90
12130;DHT22;6128;59.340;18.040;2023-12-28T06:53:55;-1.40;99.90
12130;DHT22;6128;59.340;18.040;2023-12-28T06:56:22;-1.30;99.90
12130;DHT22;6128;59.340;18.040;2023-12-28T06:58:50;-1.30;99.90
12130;DHT22;6128;59.340;18.040;2023-12-28T07:01:18;-1.30;99.90
12130;DHT22;6128;59.340;18.040;2023-12-28T07:03:45;-1.20;99.90
12130;DHT22;6128;59.340;18.040;2023-12-28T07:06:13;-1.20;99.90
12130;DHT22;6128;59.340;18.040;2023-12-28T07:08:40;-1.20;99.90
12130;DHT22;6128;59.340;18.040;2023-12-28T07:11:09;-1.20;99.90
12130;DHT22;6128;59.340;18.040;2023-12-28T07:13:37;-1.10;99.90
12130;DHT22;6128;59.340;18.040;2023-12-28T07:16:06;-1.10;99.90
12130;DHT22;6128;59.340;18.040;2023-12-28T07:18:34;-1.10;99.90
12130;DHT22;6128;59.340;18.040;2023-12-28T07:21:04;-1.00;99.90
12130;DHT22;6128;59.340;18.040;2023-12-28T07:23:35;-1.00;99.90
12130;DHT22;6128;59.340;18.040;2023-12-28T07:26:04;-0.90;99.90
12130;DHT22;6128;59.340;18.040;2023-12-28T07:28:31;-0.80;99.90
12130;DHT22;6128;59.340;18.040;2023-12-28T07:31:01;-0.80;99.90
12130;DHT22;6128;59.340;18.040;2023-12-28T07:33:30;-0.80;99.90
12130;DHT22;6128;59.340;18.040;2023-12-28T07:35:57;-0.80;99.90
12130;DHT22;6128;59.340;18.040;2023-12-28T07:38:25;-0.80;99.90
12130;DHT22;6128;59.340;18.040;2023-12-28T07:40:52;-0.90;99.90
12130;DHT22;6128;59.340;18.040;2023-12-28T07:43:19;-0.90;99.90
12130;DHT22;6128;59.340;18.040;2023-12-28T07:45:46;-0.90;99.90
12130;DHT22;6128;59.340;18.040;2023-12-28T07:48:13;-0.90;99.90
12130;DHT22;6128;59.340;18.040;2023-12-28T07:50:41;-0.90;99.90
12130;DHT22;6128;59.340;18.040;2023-12-28T07:53:08;-0.90;99.90
12130;DHT22;6128;59.340;18.040;2023-12-28T07:55:38;-0.90;99.90
12130;DHT22;6128;59.340;18.040;2023-12-28T07:58:05;-0.90;99.90
12130;DHT22;6128;59.340;18.040;2023-12-28T08:00:32;-0.90;99.90
12130;DHT22;6128;59.340;18.040;2023-12-28T08:03:00;-0.90;99.90
12130;DHT22;6128;59.340;18.040;2023-12-28T08:05:27;-0.90;99.90
12130;DHT22;6128;59.340;18.040;2023-12-28T08:07:56;-0.90;99.90
12130;DHT22;6128;59.340;18.040;2023-12-28T08:10:24;-0.90;99.90
12130;DHT22;6128;59.340;18.040;2023-12-28T08:12:51;-0.90;99.90
12130;DHT22;6128;59.340;18.040;2023-12-28T08:15:18;-0.90;99.90
12130;DHT22;6128;59.340;18.040;2023-12-28T08:17:45;-0.90;99.90
12130;DHT22;6128;59.340;18.040;2023-12-28T08:20:13;-0.90;99.90
12130;DHT22;6128;59.340;18.040;2023-12-28T08:22:40;-0.80;99.90
12130;DHT22;6128;59.340;18.040;2023-12-28T08:25:08;-0.80;99.90
12130;DHT22;6128;59.340;18.040;2023-12-28T08:27:36;-0.80;99.90
12130;DHT22;6128;59.340;18.040;2023-12-28T08:30:04;-0.80;99.90
12130;DHT22;6128;59.340;18.040;2023-12-28T08:32:32;-0.80;99.90
12130;DHT22;6128;59.340;18.040;2023-12-28T08:34:59;-0.80;99.90
12130;DHT22;6128;59.340;18.040;2023-12-28T08:37:26;-0.80;99.90
12130;DHT22;6128;59.340;18.040;2023-12-28T08:39:53;-0.80;99.90
12130;DHT22;6128;59.340;18.040;2023-12-28T08:42:22;-0.70;99.90
12130;DHT22;6128;59.340;18.040;2023-12-28T08:44:50;-0.70;99.90
12130;DHT22;6128;59.340;18.040;2023-12-28T08:47:17;-0.70;99.90
12130;DHT22;6128;59.340;18.040;2023-12-28T08:49:44;-0.70;99.90
12130;DHT22;6128;59.340;18.040;2023-12-28T08:52:11;-0.70;99.90
12130;DHT22;6128;59.340;18.040;2023-12-28T08:54:40;-0.70;99.90
12130;DHT22;6128;59.340;18.040;2023-12-28T08:57:07;-0.70;99.90
12130;DHT22;6128;59.340;18.040;2023-12-28T08:59:37;-0.70;99.90
12130;DHT22;6128;59.340;18.040;2023-12-28T09:02:04;-0.70;99.90
12130;DHT22;6128;59.340;18.040;2023-12-28T09:04:32;-0.60;99.90
12130;DHT22;6128;59.340;18.040;2023-12-28T09:06:59;-0.60;99.90
12130;DHT22;6128;59.340;18.040;2023-12-28T09:09:27;-0.50;99.90
12130;DHT22;6128;59.340;18.040;2023-12-28T09:11:54;-0.50;99.90
12130;DHT22;6128;59.340;18.040;2023-12-28T09:14:21;-0.50;99.90
12130;DHT22;6128;59.340;18.040;2023-12-28T09:16:50;-0.50;99.90
12130;DHT22;6128;59.340;18.040;2023-12-28T09:19:17;-0.40;99.90
12130;DHT22;6128;59.340;18.040;2023-12-28T09:21:44;-0.40;99.90
12130;DHT22;6128;59.340;18.040;2023-12-28T09:24:11;-0.40;99.90
12130;DHT22;6128;59.340;18.040;2023-12-28T09:26:38;-0.30;99.90
12130;DHT22;6128;59.340;18.040;2023-12-28T09:29:06;-0.30;99.90
12130;DHT22;6128;59.340;18.040;2023-12-28T09:31:33;-0.30;99.90
12130;DHT22;6128;59.340;18.040;2023-12-28T09:34:01;-0.20;99.90
12130;DHT22;6128;59.340;18.040;2023-12-28T09:36:30;-0.20;99.90
12130;DHT22;6128;59.340;18.040;2023-12-28T09:38:57;-0.10;99.90
12130;DHT22;6128;59.340;18.040;2023-12-28T09:41:26;-0.10;99.90
12130;DHT22;6128;59.340;18.040;2023-12-28T09:43:54;-0.10;99.90
12130;DHT22;6128;59.340;18.040;2023-12-28T09:46:21;0.00;99.90
12130;DHT22;6128;59.340;18.040;2023-12-28T09:48:49;0.00;99.90
12130;DHT22;6128;59.340;18.040;2023-12-28T09:51:17;0.10;99.90
12130;DHT22;6128;59.340;18.040;2023-12-28T09:53:44;0.10;99.90
12130;DHT22;6128;59.340;18.040;2023-12-28T09:56:12;0.20;99.90
12130;DHT22;6128;59.340;18.040;2023-12-28T09:58:40;0.20;99.90
12130;DHT22;6128;59.340;18.040;2023-12-28T10:01:09;0.20;99.90
12130;DHT22;6128;59.340;18.040;2023-12-28T10:03:36;0.20;99.90
12130;DHT22;6128;59.340;18.040;2023-12-28T10:06:04;0.30;99.90
12130;DHT22;6128;59.340;18.040;2023-12-28T10:08:33;0.30;99.90
12130;DHT22;6128;59.340;18.040;2023-12-28T10:11:02;0.30;99.90
12130;DHT22;6128;59.340;18.040;2023-12-28T10:13:32;0.40;99.90
12130;DHT22;6128;59.340;18.040;2023-12-28T10:16:00;0.40;99.90
12130;DHT22;6128;59.340;18.040;2023-12-28T10:18:28;0.40;99.90
12130;DHT22;6128;59.340;18.040;2023-12-28T10:20:56;0.40;99.90
12130;DHT22;6128;59.340;18.040;2023-12-28T10:23:23;0.50;99.90
12130;DHT22;6128;59.340;18.040;2023-12-28T10:25:56;0.50;99.90
12130;DHT22;6128;59.340;18.040;2023-12-28T10:28:24;0.50;99.90
12130;DHT22;6128;59.340;18.040;2023-12-28T10:30:54;0.50;99.90
12130;DHT22;6128;59.340;18.040;2023-12-28T10:33:22;0.50;99.90
12130;DHT22;6128;59.340;18.040;2023-12-28T10:35:50;0.60;99.90
12130;DHT22;6128;59.340;18.040;2023-12-28T10:38:18;0.60;99.90
12130;DHT22;6128;59.340;18.040;2023-12-28T10:40:46;0.70;99.90
12130;DHT22;6128;59.340;18.040;2023-12-28T10:43:16;0.70;99.90
12130;DHT22;6128;59.340;18.040;2023-12-28T10:45:47;0.70;99.90
12130;DHT22;6128;59.340;18.040;2023-12-28T10:48:21;0.70;99.90
12130;DHT22;6128;59.340;18.040;2023-12-28T10:50:53;0.80;99.90
12130;DHT22;6128;59.340;18.040;2023-12-28T10:53:38;0.80;99.90
12130;DHT22;6128;59.340;18.040;2023-12-28T10:56:20;0.90;99.90
12130;DHT22;6128;59.340;18.040;2023-12-28T10:58:52;0.90;99.90
12130;DHT22;6128;59.340;18.040;2023-12-28T11:01:24;0.90;99.90
12130;DHT22;6128;59.340;18.040;2023-12-28T11:04:10;0.90;99.90
12130;DHT22;6128;59.340;18.040;2023-12-28T11:06:39;1.00;99.90
12130;DHT22;6128;59.340;18.040;2023-12-28T11:09:09;1.00;99.90
12130;DHT22;6128;59.340;18.040;2023-12-28T11:11:37;1.00;99.90
12130;DHT22;6128;59.340;18.040;2023-12-28T11:14:06;1.00;99.90
12130;DHT22;6128;59.340;18.040;2023-12-28T11:16:34;1.10;99.90
12130;DHT22;6128;59.340;18.040;2023-12-28T11:19:03;1.10;99.90
12130;DHT22;6128;59.340;18.040;2023-12-28T11:21:31;1.10;99.90
12130;DHT22;6128;59.340;18.040;2023-12-28T11:24:00;1.10;99.90
12130;DHT22;6128;59.340;18.040;2023-12-28T11:26:28;1.10;99.90
12130;DHT22;6128;59.340;18.040;2023-12-28T11:29:00;1.10;99.90
12130;DHT22;6128;59.340;18.040;2023-12-28T11:31:32;1.20;99.90
12130;DHT22;6128;59.340;18.040;2023-12-28T11:34:00;1.20;99.90
12130;DHT22;6128;59.340;18.040;2023-12-28T11:36:32;1.20;99.90
12130;DHT22;6128;59.340;18.040;2023-12-28T11:39:03;1.20;99.90
12130;DHT22;6128;59.340;18.040;2023-12-28T11:41:32;1.20;99.90
12130;DHT22;6128;59.340;18.040;2023-12-28T11:44:02;1.20;99.90
12130;DHT22;6128;59.340;18.040;2023-12-28T11:46:32;1.30;99.90
12130;DHT22;6128;59.340;18.040;2023-12-28T11:49:05;1.30;99.90
12130;DHT22;6128;59.340;18.040;2023-12-28T11:51:35;1.30;99.90
12130;DHT22;6128;59.340;18.040;2023-12-28T11:54:03;1.30;99.90
12130;DHT22;6128;59.340;18.040;2023-12-28T11:56:31;1.30;99.90
12130;DHT22;6128;59.340;18.040;2023-12-28T11:58:59;1.30;99.90
12130;DHT22;6128;59.340;18.040;2023-12-28T12:01:26;1.40;99.90
12130;DHT22;6128;59.340;18.040;2023-12-28T12:03:55;1.40;99.90
12130;DHT22;6128;59.340;18.040;2023-12-28T12:06:22;1.40;99.90
12130;DHT22;6128;59.340;18.040;2023-12-28T12:08:49;1.40;99.90
12130;DHT22;6128;59.340;18.040;2023-12-28T12:11:17;1.50;99.90
12130;DHT22;6128;59.340;18.040;2023-12-28T12:13:44;1.50;99.90
12130;DHT22;6128;59.340;18.040;2023-12-28T12:16:14;1.50;99.90
12130;DHT22;6128;59.340;18.040;2023-12-28T12:18:41;1.50;99.90
12130;DHT22;6128;59.340;18.040;2023-12-28T12:21:09;1.50;99.90
12130;DHT22;6128;59.340;18.040;2023-12-28T12:23:37;1.60;99.90
12130;DHT22;6128;59.340;18.040;2023-12-28T12:26:08;1.60;99.90
12130;DHT22;6128;59.340;18.040;2023-12-28T12:28:35;1.60;99.90
12130;DHT22;6128;59.340;18.040;2023-12-28T12:31:03;1.60;99.90
12130;DHT22;6128;59.340;18.040;2023-12-28T12:33:31;1.70;99.90
12130;DHT22;6128;59.340;18.040;2023-12-28T12:35:59;1.60;99.90
12130;DHT22;6128;59.340;18.040;2023-12-28T12:38:27;1.70;99.90
12130;DHT22;6128;59.340;18.040;2023-12-28T12:40:55;1.70;99.90
12130;DHT22;6128;59.340;18.040;2023-12-28T12:43:22;1.70;99.90
12130;DHT22;6128;59.340;18.040;2023-12-28T12:45:49;1.80;99.90
12130;DHT22;6128;59.340;18.040;2023-12-28T12:48:16;1.80;99.90
12130;DHT22;6128;59.340;18.040;2023-12-28T12:50:44;1.80;99.90
12130;DHT22;6128;59.340;18.040;2023-12-28T12:53:11;1.80;99.90
12130;DHT22;6128;59.340;18.040;2023-12-28T12:55:40;1.80;99.90
12130;DHT22;6128;59.340;18.040;2023-12-28T12:58:08;1.90;99.90
12130;DHT22;6128;59.340;18.040;2023-12-28T13:00:35;1.90;99.90
12130;DHT22;6128;59.340;18.040;2023-12-28T13:03:02;1.90;99.90
12130;DHT22;6128;59.340;18.040;2023-12-28T13:05:30;1.90;99.90
12130;DHT22;6128;59.340;18.040;2023-12-28T13:07:57;1.90;99.90
12130;DHT22;6128;59.340;18.040;2023-12-28T13:10:24;1.90;99.90
12130;DHT22;6128;59.340;18.040;2023-12-28T13:12:52;2.00;99.90
12130;DHT22;6128;59.340;18.040;2023-12-28T13:15:21;2.00;99.90
12130;DHT22;6128;59.340;18.040;2023-12-28T13:17:48;2.00;99.90
12130;DHT22;6128;59.340;18.040;2023-12-28T13:20:15;2.00;99.90
12130;DHT22;6128;59.340;18.040;2023-12-28T13:22:42;2.00;99.90
12130;DHT22;6128;59.340;18.040;2023-12-28T13:25:09;2.00;99.90
12130;DHT22;6128;59.340;18.040;2023-12-28T13:27:36;2.00;99.90
12130;DHT22;6128;59.340;18.040;2023-12-28T13:30:06;2.00;99.90
12130;DHT22;6128;59.340;18.040;2023-12-28T13:32:33;2.00;99.90
12130;DHT22;6128;59.340;18.040;2023-12-28T13:35:00;2.10;99.90
12130;DHT22;6128;59.340;18.040;2023-12-28T13:37:27;2.10;99.90
12130;DHT22;6128;59.340;18.040;2023-12-28T13:39:54;2.10;99.90
12130;DHT22;6128;59.340;18.040;2023-12-28T13:42:21;2.20;99.90
12130;DHT22;6128;59.340;18.040;2023-12-28T13:44:48;2.20;99.90
12130;DHT22;6128;59.340;18.040;2023-12-28T13:47:17;2.20;99.90
12130;DHT22;6128;59.340;18.040;2023-12-28T13:49:44;2.20;99.90
12130;DHT22;6128;59.340;18.040;2023-12-28T13:52:11;2.20;99.90
12130;DHT22;6128;59.340;18.040;2023-12-28T13:54:38;2.20;99.90
12130;DHT22;6128;59.340;18.040;2023-12-28T13:57:06;2.20;99.90
12130;DHT22;6128;59.340;18.040;2023-12-28T13:59:34;2.30;99.90
12130;DHT22;6128;59.340;18.040;2023-12-28T14:02:01;2.30;99.90
12130;DHT22;6128;59.340;18.040;2023-12-28T14:04:30;2.30;99.90
12130;DHT22;6128;59.340;18.040;2023-12-28T14:06:57;2.30;99.90
12130;DHT22;6128;59.340;18.040;2023-12-28T14:09:24;2.30;99.90
12130;DHT22;6128;59.340;18.040;2023-12-28T14:11:51;2.30;99.90
12130;DHT22;6128;59.340;18.040;2023-12-28T14:14:18;2.30;99.90
12130;DHT22;6128;59.340;18.040;2023-12-28T14:16:46;2.30;99.90
12130;DHT22;6128;59.340;18.040;2023-12-28T14:19:13;2.30;99.90
12130;DHT22;6128;59.340;18.040;2023-12-28T14:21:42;2.30;99.90
12130;DHT22;6128;59.340;18.040;2023-12-28T14:24:10;2.40;99.90
12130;DHT22;6128;59.340;18.040;2023-12-28T14:26:41;2.40;99.90
12130;DHT22;6128;59.340;18.040;2023-12-28T14:29:09;2.40;99.90
12130;DHT22;6128;59.340;18.040;2023-12-28T14:31:37;2.50;99.90
12130;DHT22;6128;59.340;18.040;2023-12-28T14:34:05;2.50;99.90
12130;DHT22;6128;59.340;18.040;2023-12-28T14:36:33;2.50;99.90
12130;DHT22;6128;59.340;18.040;2023-12-28T14:39:03;2.60;99.90
12130;DHT22;6128;59.340;18.040;2023-12-28T14:41:31;2.60;99.90
12130;DHT22;6128;59.340;18.040;2023-12-28T14:43:59;2.70;99.90
12130;DHT22;6128;59.340;18.040;2023-12-28T14:46:26;2.70;99.90
12130;DHT22;6128;59.340;18.040;2023-12-28T14:48:56;2.70;99.90
12130;DHT22;6128;59.340;18.040;2023-12-28T14:51:23;2.70;99.90
12130;DHT22;6128;59.340;18.040;2023-12-28T14:53:50;2.70;99.90
12130;DHT22;6128;59.340;18.040;2023-12-28T14:56:18;2.70;99.90
12130;DHT22;6128;59.340;18.040;2023-12-28T14:58:46;2.70;99.90
12130;DHT22;6128;59.340;18.040;2023-12-28T15:01:14;2.70;99.90
12130;DHT22;6128;59.340;18.040;2023-12-28T15:03:41;2.70;99.90
12130;DHT22;6128;59.340;18.040;2023-12-28T15:06:08;2.70;99.90
12130;DHT22;6128;59.340;18.040;2023-12-28T15:08:38;2.70;99.90
12130;DHT22;6128;59.340;18.040;2023-12-28T15:11:05;2.70;99.90
12130;DHT22;6128;59.340;18.040;2023-12-28T15:13:37;2.70;99.90
12130;DHT22;6128;59.340;18.040;2023-12-28T15:16:06;2.70;99.90
12130;DHT22;6128;59.340;18.040;2023-12-28T15:18:33;2.70;99.90
12130;DHT22;6128;59.340;18.040;2023-12-28T15:21:01;2.60;99.90
12130;DHT22;6128;59.340;18.040;2023-12-28T15:23:29;2.60;99.90
12130;DHT22;6128;59.340;18.040;2023-12-28T15:25:57;2.60;99.90
12130;DHT22;6128;59.340;18.040;2023-12-28T15:28:24;2.60;99.90
12130;DHT22;6128;59.340;18.040;2023-12-28T15:30:55;2.60;99.90
12130;DHT22;6128;59.340;18.040;2023-12-28T15:33:23;2.60;99.90
12130;DHT22;6128;59.340;18.040;2023-12-28T15:35:50;2.60;99.90
12130;DHT22;6128;59.340;18.040;2023-12-28T15:38:17;2.60;99.90
12130;DHT22;6128;59.340;18.040;2023-12-28T15:40:45;2.60;99.90